createdAt,value
2022-11-19T00:02:08.321Z,7.80
2022-11-19T00:04:37.762Z,7.80
2022-11-19T00:07:05.735Z,7.80
2022-11-19T00:09:33.753Z,7.80
2022-11-19T00:12:19.442Z,7.80
2022-11-19T10:22:40.038Z,10.10
2022-11-19T10:25:17.173Z,11.30
2022-11-19T10:27:49.936Z,11.20
2022-11-19T10:30:20.201Z,11.10
2022-11-19T10:32:55.364Z,11.20
2022-11-19T10:35:27.780Z,11.20
2022-11-19T10:37:59.681Z,11.30
2022-11-19T10:40:34.185Z,11.30
2022-11-19T10:43:23.216Z,11.30
2022-11-19T10:45:51.751Z,11.10
2022-11-19T10:48:23.603Z,11.10
2022-11-19T10:50:51.861Z,11.20
2022-11-19T10:53:27.028Z,11.20
2022-11-19T10:55:58.512Z,11.20
2022-11-19T10:58:29.746Z,11.10
2022-11-19T11:01:00.793Z,11.20
2022-11-19T11:03:33.495Z,11.30
2022-11-19T11:06:05.479Z,11.40
2022-11-19T11:08:35.069Z,11.30
2022-11-19T11:11:03.127Z,11.40
2022-11-19T11:13:55.466Z,11.10
2022-11-19T11:16:26.870Z,11.00
2022-11-19T11:18:57.702Z,11.10
2022-11-19T11:21:35.915Z,11.20
2022-11-19T11:24:07.035Z,11.20
2022-11-19T11:26:37.781Z,11.20
2022-11-19T11:29:08.832Z,11.40
2022-11-19T11:31:39.526Z,11.30
2022-11-19T11:34:14.673Z,11.30
2022-11-19T11:36:43.773Z,11.40
2022-11-19T11:39:30.107Z,11.50
2022-11-19T11:42:05.906Z,11.60
2022-11-19T11:44:36.818Z,11.20
2022-11-19T11:47:12.505Z,10.70
2022-11-19T11:49:43.158Z,10.40
2022-11-19T11:52:21.185Z,10.10
2022-11-19T11:54:58.736Z,10.10
2022-11-19T11:57:28.747Z,10.20
2022-11-19T11:59:57.570Z,10.30
2022-11-19T12:02:30.566Z,10.40
2022-11-19T12:05:02.041Z,10.30
2022-11-19T12:08:03.772Z,10.30
2022-11-19T12:10:42.689Z,10.30
2022-11-19T12:13:53.707Z,10.20
2022-11-19T12:16:36.438Z,10.20
2022-11-19T12:19:23.781Z,10.10
2022-11-19T12:21:57.312Z,10.00
2022-11-19T12:24:39.400Z,9.80
2022-11-19T12:27:18.714Z,9.80
2022-11-19T12:29:57.720Z,9.70
2022-11-19T12:32:44.579Z,9.70
2022-11-19T12:35:37.639Z,9.80
2022-11-19T12:38:25.451Z,9.80
2022-11-19T12:41:02.719Z,9.80
2022-11-19T12:43:46.775Z,9.70
2022-11-19T12:46:22.038Z,9.70
2022-11-19T12:49:01.378Z,9.70
2022-11-19T12:51:43.275Z,9.80
2022-11-19T12:54:33.463Z,9.90
2022-11-19T12:57:21.107Z,10.10
2022-11-19T13:00:12.042Z,10.30
2022-11-19T13:02:49.690Z,10.30
2022-11-19T13:05:21.263Z,10.50
2022-11-19T13:07:53.977Z,10.70
2022-11-19T13:10:25.890Z,10.70
2022-11-19T13:12:56.788Z,10.60
2022-11-19T13:15:31.004Z,10.70
2022-11-19T13:18:03.552Z,10.70
2022-11-19T13:20:41.640Z,10.60
2022-11-19T13:23:16.552Z,10.60
2022-11-19T13:25:47.968Z,10.50
2022-11-19T13:28:24.409Z,10.40
2022-11-19T13:30:56.332Z,10.30
2022-11-19T13:33:29.264Z,10.20
2022-11-19T13:36:03.448Z,10.10
2022-11-19T13:38:37.988Z,10.00
2022-11-19T13:41:13.145Z,10.10
2022-11-19T13:43:59.657Z,10.00
2022-11-19T13:46:34.680Z,9.90
2022-11-19T13:49:05.661Z,9.90
2022-11-19T13:51:36.500Z,9.90
2022-11-19T13:54:07.438Z,9.90
2022-11-19T13:56:41.643Z,10.00
2022-11-19T13:59:26.152Z,10.00
2022-11-19T14:02:27.173Z,9.90
2022-11-19T14:05:27.177Z,9.80
2022-11-19T14:08:10.723Z,9.80
2022-11-19T14:10:44.196Z,9.80
2022-11-19T14:13:39.406Z,9.80
2022-11-19T14:16:37.131Z,9.80
2022-11-19T14:19:30.210Z,9.80
2022-11-19T14:22:17.404Z,9.70
2022-11-19T14:25:15.751Z,9.70
2022-11-19T14:27:44.550Z,9.70
2022-11-19T14:30:18.005Z,9.70
2022-11-19T14:32:49.075Z,9.70
2022-11-19T14:35:43.819Z,9.80
2022-11-19T14:38:30.713Z,9.90
2022-11-19T14:41:19.796Z,10.10
2022-11-19T14:44:13.806Z,10.20
2022-11-19T14:47:05.021Z,10.30
2022-11-19T14:49:47.830Z,10.20
2022-11-19T14:52:25.270Z,10.10
2022-11-19T14:54:56.445Z,10.20
2022-11-19T14:57:31.189Z,10.20
2022-11-19T15:00:02.516Z,10.20
2022-11-19T15:02:34.936Z,10.10
2022-11-19T15:05:15.829Z,10.10
2022-11-19T15:07:51.399Z,10.20
2022-11-19T15:10:30.168Z,10.10
2022-11-19T15:13:26.760Z,10.00
2022-11-19T15:15:58.780Z,10.00
2022-11-19T15:18:51.956Z,9.80
2022-11-19T15:21:41.181Z,9.70
2022-11-19T15:24:21.594Z,9.70
2022-11-19T15:27:00.027Z,9.70
2022-11-19T15:29:46.642Z,9.70
2022-11-19T15:32:26.774Z,9.70
2022-11-19T15:35:20.253Z,9.70
2022-11-19T15:37:52.306Z,9.70
2022-11-19T15:40:25.758Z,9.80
2022-11-19T15:43:02.959Z,10.00
2022-11-19T15:45:37.266Z,9.90
2022-11-19T15:48:13.339Z,9.90
2022-11-19T15:50:43.792Z,10.00
2022-11-19T15:53:18.061Z,9.90
2022-11-19T15:55:54.719Z,10.00
2022-11-19T15:58:27.507Z,10.00
2022-11-19T16:00:56.559Z,10.00
2022-11-19T16:03:25.216Z,9.80
2022-11-19T16:06:03.018Z,9.70
2022-11-19T16:08:31.628Z,9.60
2022-11-19T16:11:20.476Z,9.60
2022-11-19T16:14:09.132Z,9.70
2022-11-19T16:16:54.784Z,9.70
2022-11-19T16:19:23.686Z,9.70
2022-11-19T16:21:55.443Z,9.70
2022-11-19T16:24:44.658Z,9.70
2022-11-19T16:27:23.312Z,9.80
2022-11-19T16:29:52.623Z,9.70
2022-11-19T16:32:23.040Z,9.60
2022-11-19T16:34:51.265Z,9.60
2022-11-19T16:37:22.773Z,9.70
2022-11-19T16:39:53.536Z,9.80
2022-11-19T16:42:27.179Z,9.80
2022-11-19T16:44:57.355Z,9.80
2022-11-19T16:47:29.554Z,9.80
2022-11-19T16:50:01.752Z,9.80
2022-11-19T16:52:40.829Z,9.70
2022-11-19T16:55:51.478Z,9.80
2022-11-19T16:58:25.292Z,9.60
2022-11-19T17:00:59.327Z,9.60
2022-11-19T17:03:39.719Z,9.50
2022-11-19T17:06:10.131Z,9.40
2022-11-19T17:08:39.306Z,9.40
2022-11-19T17:11:38.925Z,9.50
2022-11-19T17:14:14.701Z,9.50
2022-11-19T17:16:46.835Z,9.60
2022-11-19T17:19:16.929Z,9.50
2022-11-19T17:21:57.110Z,9.50
2022-11-19T17:24:28.128Z,9.50
2022-11-19T17:26:58.199Z,9.50
2022-11-19T17:29:26.608Z,9.50
2022-11-19T17:31:56.340Z,9.50
2022-11-19T17:34:31.263Z,9.50
2022-11-19T17:36:59.538Z,9.50
2022-11-19T17:39:27.601Z,9.40
2022-11-19T17:42:15.501Z,9.50
2022-11-19T17:44:43.665Z,9.40
2022-11-19T17:47:24.538Z,9.40
2022-11-19T17:49:53.437Z,9.30
2022-11-19T17:52:26.361Z,9.30
2022-11-19T17:54:56.808Z,9.40
2022-11-19T17:57:26.317Z,9.40
2022-11-19T17:59:54.691Z,9.20
2022-11-19T18:02:22.743Z,9.20
2022-11-19T18:04:50.798Z,9.20
2022-11-19T18:07:18.781Z,9.30
2022-11-19T18:09:46.728Z,9.30
2022-11-19T18:12:17.078Z,9.40
2022-11-19T18:14:47.434Z,9.40
2022-11-19T18:17:16.379Z,9.20
2022-11-19T18:19:44.447Z,9.20
2022-11-19T18:22:18.504Z,9.20
2022-11-19T18:24:48.263Z,9.20
2022-11-19T18:27:16.562Z,9.20
2022-11-19T18:29:45.891Z,9.10
2022-11-19T18:32:16.944Z,9.00
2022-11-19T18:34:45.539Z,8.90
2022-11-19T18:37:14.221Z,8.70
2022-11-19T18:39:42.097Z,8.60
2022-11-19T18:42:12.509Z,8.50
2022-11-19T18:44:41.753Z,8.50
2022-11-19T18:47:12.494Z,8.30
2022-11-19T18:49:41.270Z,8.10
2022-11-19T18:52:12.273Z,8.10
2022-11-19T18:54:40.306Z,8.10
2022-11-19T18:57:08.240Z,8.10
2022-11-19T18:59:36.414Z,8.10
2022-11-19T19:02:04.968Z,8.10
2022-11-19T19:04:34.381Z,8.20
2022-11-19T19:07:02.368Z,8.20
2022-11-19T19:09:30.608Z,8.10
2022-11-19T19:12:16.104Z,8.00
2022-11-19T19:14:45.042Z,8.10
2022-11-19T19:17:14.424Z,8.00
2022-11-19T19:19:43.750Z,7.90
2022-11-19T19:22:11.961Z,7.90
2022-11-19T19:24:40.109Z,7.90
2022-11-19T19:27:08.104Z,7.90
2022-11-19T19:29:36.178Z,7.90
2022-11-19T19:32:04.133Z,7.80
2022-11-19T19:34:32.669Z,7.80
2022-11-19T19:37:02.111Z,7.70
2022-11-19T19:39:30.233Z,7.80
2022-11-19T19:41:58.306Z,7.80
2022-11-19T19:44:26.386Z,7.80
2022-11-19T19:46:54.677Z,7.80
2022-11-19T19:49:23.112Z,7.90
2022-11-19T19:51:51.226Z,7.80
2022-11-19T19:54:20.924Z,7.90
2022-11-19T19:56:48.989Z,7.80
2022-11-19T19:59:16.958Z,7.90
2022-11-19T20:01:47.578Z,7.80
2022-11-19T20:04:15.690Z,7.80
2022-11-19T20:06:46.872Z,7.80
2022-11-19T20:09:15.157Z,7.80
2022-11-19T20:11:44.505Z,7.70
2022-11-19T20:14:12.686Z,7.80
2022-11-19T20:16:42.151Z,7.70
2022-11-19T20:19:14.771Z,7.70
2022-11-19T20:21:43.274Z,7.80
2022-11-19T20:24:13.261Z,7.80
2022-11-19T20:26:44.073Z,7.80
2022-11-19T20:29:14.075Z,7.80
2022-11-19T20:31:46.248Z,7.80
2022-11-19T20:34:14.480Z,7.80
2022-11-19T20:36:43.372Z,7.90
2022-11-19T20:39:12.481Z,7.90
2022-11-19T20:41:57.940Z,8.00
2022-11-19T20:44:27.214Z,8.00
2022-11-19T20:46:56.753Z,8.00
2022-11-19T20:49:26.713Z,8.00
2022-11-19T20:51:55.604Z,8.00
2022-11-19T20:54:24.793Z,8.00
2022-11-19T20:56:53.755Z,8.00
2022-11-19T20:59:22.734Z,8.00
2022-11-19T21:01:52.933Z,7.90
2022-11-19T21:04:22.047Z,8.00
2022-11-19T21:06:50.772Z,8.00
2022-11-19T21:09:19.604Z,8.00
2022-11-19T21:11:48.666Z,8.00
2022-11-19T21:14:16.572Z,7.90
2022-11-19T21:16:44.467Z,8.00
2022-11-19T21:19:14.467Z,7.90
2022-11-19T21:21:43.043Z,7.90
2022-11-19T21:24:11.207Z,7.90
2022-11-19T21:26:39.343Z,7.80
2022-11-19T21:29:07.716Z,7.90
2022-11-19T21:31:42.385Z,7.80
2022-11-19T21:34:13.712Z,7.80
2022-11-19T21:36:43.015Z,7.80
2022-11-19T21:39:12.140Z,7.80
2022-11-19T21:41:40.497Z,7.80
2022-11-19T21:44:08.615Z,7.80
2022-11-19T21:46:37.252Z,7.70
2022-11-19T21:49:05.721Z,7.70
2022-11-19T21:51:35.499Z,7.60
2022-11-19T21:54:03.345Z,7.50
2022-11-19T21:56:37.122Z,7.40
2022-11-19T21:59:06.623Z,7.30
2022-11-19T22:01:34.851Z,7.30
2022-11-19T22:04:02.780Z,7.20
2022-11-19T22:06:31.364Z,7.30
2022-11-19T22:09:00.780Z,7.20
2022-11-19T22:11:32.147Z,7.20
2022-11-19T22:14:02.401Z,7.20
2022-11-19T22:16:31.119Z,7.10
2022-11-19T22:18:59.004Z,7.20
2022-11-19T22:21:27.459Z,7.20
2022-11-19T22:23:55.499Z,7.30
2022-11-19T22:26:24.727Z,7.30
2022-11-19T22:28:52.871Z,7.30
2022-11-19T22:31:20.804Z,7.20
2022-11-19T22:33:51.891Z,7.20
2022-11-19T22:36:21.761Z,7.30
2022-11-19T22:38:50.384Z,7.30
2022-11-19T22:41:20.973Z,7.30
2022-11-19T22:43:51.363Z,7.30
2022-11-19T22:46:20.317Z,7.30
2022-11-19T22:48:48.465Z,7.20
2022-11-19T22:51:18.669Z,7.20
2022-11-19T22:53:46.569Z,7.20
2022-11-19T22:56:17.813Z,7.20
2022-11-19T22:58:45.950Z,7.10
2022-11-19T23:01:18.359Z,7.10
2022-11-19T23:03:46.789Z,7.10
2022-11-19T23:06:15.328Z,7.10
2022-11-19T23:08:43.297Z,7.10
2022-11-19T23:11:11.728Z,7.10
2022-11-19T23:13:41.149Z,7.00
2022-11-19T23:16:11.089Z,7.10
2022-11-19T23:18:42.016Z,7.20
2022-11-19T23:21:11.572Z,7.20
2022-11-19T23:23:39.488Z,7.20
2022-11-19T23:26:09.239Z,7.20
2022-11-19T23:28:38.394Z,7.30
2022-11-19T23:31:08.125Z,7.30
2022-11-19T23:33:36.014Z,7.30
2022-11-19T23:36:08.133Z,7.20
2022-11-19T23:38:36.613Z,7.30
2022-11-19T23:41:06.078Z,7.30
2022-11-19T23:43:34.846Z,7.40
2022-11-19T23:46:08.047Z,7.30
2022-11-19T23:48:37.130Z,7.30
2022-11-19T23:51:08.780Z,7.40
2022-11-19T23:53:36.992Z,7.40
2022-11-19T23:56:05.975Z,7.40
2022-11-19T23:58:34.537Z,7.40
